createdAt,value
2017-10-28T00:02:26.167Z,3.25
2017-10-28T00:04:52.497Z,3.33
2017-10-28T00:07:18.779Z,2.45
2017-10-28T00:09:45.103Z,3.05
2017-10-28T00:12:11.387Z,2.20
2017-10-28T00:14:37.727Z,3.07
2017-10-28T00:17:04.024Z,4.15
2017-10-28T00:19:30.327Z,2.05
2017-10-28T00:21:56.618Z,3.62
2017-10-28T00:24:22.935Z,2.40
2017-10-28T00:26:49.199Z,2.17
2017-10-28T00:29:15.515Z,2.05
2017-10-28T00:31:47.793Z,2.33
2017-10-28T00:34:20.231Z,2.10
2017-10-28T00:36:46.571Z,2.70
2017-10-28T00:39:12.878Z,2.40
2017-10-28T00:41:39.239Z,1.83
2017-10-28T00:44:05.542Z,2.15
2017-10-28T00:46:32.566Z,1.30
2017-10-28T00:48:58.890Z,2.25
2017-10-28T00:51:25.171Z,1.92
2017-10-28T00:53:51.507Z,3.22
2017-10-28T00:56:17.783Z,2.45
2017-10-28T00:58:44.075Z,2.30
2017-10-28T01:01:10.373Z,1.90
2017-10-28T01:03:36.685Z,1.92
2017-10-28T01:06:03.028Z,1.62
2017-10-28T01:08:29.409Z,2.10
2017-10-28T01:10:55.808Z,2.05
2017-10-28T01:13:22.941Z,2.30
2017-10-28T01:15:49.417Z,2.15
2017-10-28T01:18:15.843Z,1.75
2017-10-28T01:20:42.263Z,1.90
2017-10-28T01:23:08.695Z,1.80
2017-10-28T01:25:35.116Z,1.80
2017-10-28T01:28:01.487Z,2.22
2017-10-28T01:30:27.876Z,1.70
2017-10-28T01:32:54.269Z,1.70
2017-10-28T01:35:21.751Z,1.65
2017-10-28T01:37:48.905Z,1.85
2017-10-28T01:40:15.327Z,1.83
2017-10-28T01:42:41.707Z,1.67
2017-10-28T01:45:08.103Z,2.22
2017-10-28T01:47:34.568Z,1.75
2017-10-28T01:50:00.992Z,2.35
2017-10-28T01:52:27.368Z,1.83
2017-10-28T01:54:53.803Z,2.40
2017-10-28T01:57:20.235Z,2.25
2017-10-28T01:59:46.639Z,1.42
2017-10-28T02:02:13.835Z,2.12
2017-10-28T02:04:40.267Z,1.98
2017-10-28T02:07:06.694Z,1.42
2017-10-28T02:09:33.071Z,2.33
2017-10-28T02:11:59.464Z,1.80
2017-10-28T02:14:25.852Z,2.03
2017-10-28T02:16:52.197Z,1.48
2017-10-28T02:19:18.652Z,2.05
2017-10-28T02:21:45.020Z,2.58
2017-10-28T02:24:11.462Z,3.05
2017-10-28T02:26:37.861Z,2.40
2017-10-28T02:29:05.236Z,2.30
2017-10-28T02:31:32.376Z,2.28
2017-10-28T02:33:58.767Z,2.00
2017-10-28T02:36:25.915Z,2.45
2017-10-28T02:38:52.336Z,2.25
2017-10-28T02:41:18.709Z,1.90
2017-10-28T02:43:45.102Z,2.30
2017-10-28T02:46:12.244Z,2.22
2017-10-28T02:48:38.640Z,2.40
2017-10-28T02:51:05.807Z,1.75
2017-10-28T02:53:32.997Z,1.90
2017-10-28T02:56:00.130Z,2.20
2017-10-28T02:58:26.532Z,2.22
2017-10-28T03:00:53.000Z,2.00
2017-10-28T03:03:19.363Z,2.42
2017-10-28T03:05:45.759Z,2.28
2017-10-28T03:08:12.232Z,2.05
2017-10-28T03:10:38.671Z,2.97
2017-10-28T03:13:05.071Z,1.98
2017-10-28T03:15:31.531Z,2.97
2017-10-28T03:17:57.956Z,2.50
2017-10-28T03:20:24.391Z,2.08
2017-10-28T03:22:50.817Z,3.17
2017-10-28T03:25:17.273Z,3.45
2017-10-28T03:27:43.703Z,3.08
2017-10-28T03:30:10.132Z,2.55
2017-10-28T03:32:36.528Z,2.97
2017-10-28T03:35:03.004Z,3.25
2017-10-28T03:37:29.460Z,3.90
2017-10-28T03:39:55.849Z,2.95
2017-10-28T03:42:22.248Z,2.85
2017-10-28T03:44:48.718Z,3.72
2017-10-28T03:47:15.122Z,2.83
2017-10-28T03:49:41.507Z,3.35
2017-10-28T03:52:08.709Z,3.03
2017-10-28T03:54:35.167Z,3.37
2017-10-28T03:57:01.571Z,3.47
2017-10-28T03:59:28.004Z,4.37
2017-10-28T04:01:54.388Z,3.40
2017-10-28T04:04:20.815Z,3.70
2017-10-28T04:06:47.223Z,3.33
2017-10-28T04:09:14.502Z,4.40
2017-10-28T04:11:41.643Z,4.05
2017-10-28T04:14:08.792Z,4.18
2017-10-28T04:16:35.203Z,3.67
2017-10-28T04:19:02.304Z,4.95
2017-10-28T04:21:28.739Z,4.12
2017-10-28T04:23:55.952Z,4.30
2017-10-28T04:26:22.384Z,4.12
2017-10-28T04:28:48.847Z,4.15
2017-10-28T04:31:15.963Z,4.07
2017-10-28T04:33:42.437Z,4.35
2017-10-28T04:36:09.638Z,4.72
2017-10-28T04:38:36.072Z,4.22
2017-10-28T04:41:02.444Z,3.47
2017-10-28T04:43:28.959Z,4.20
2017-10-28T04:45:55.376Z,4.30
2017-10-28T04:48:21.824Z,4.75
2017-10-28T04:50:48.232Z,4.25
2017-10-28T04:53:14.625Z,3.90
2017-10-28T04:55:41.030Z,4.40
2017-10-28T04:58:07.911Z,3.80
2017-10-28T05:00:34.308Z,4.25
2017-10-28T05:03:00.767Z,3.75
2017-10-28T05:05:27.166Z,3.90
2017-10-28T05:07:53.583Z,4.62
2017-10-28T05:10:20.799Z,4.03
2017-10-28T05:12:47.271Z,3.33
2017-10-28T05:15:13.679Z,3.85
2017-10-28T05:17:40.822Z,3.25
2017-10-28T05:20:08.052Z,4.25
2017-10-28T05:22:34.507Z,3.83
2017-10-28T05:25:01.999Z,4.87
2017-10-28T05:27:28.432Z,4.40
2017-10-28T05:29:55.596Z,4.07
2017-10-28T05:32:23.867Z,4.47
2017-10-28T05:34:51.055Z,5.03
2017-10-28T05:37:17.479Z,4.32
2017-10-28T05:39:43.960Z,3.97
2017-10-28T05:42:11.168Z,5.28
2017-10-28T05:44:37.891Z,5.32
2017-10-28T05:47:04.340Z,4.50
2017-10-28T05:49:30.876Z,3.75
2017-10-28T05:51:57.299Z,4.32
2017-10-28T05:54:24.468Z,3.60
2017-10-28T05:56:50.957Z,4.78
2017-10-28T05:59:17.349Z,4.40
2017-10-28T06:01:43.773Z,5.85
2017-10-28T06:04:10.212Z,5.07
2017-10-28T06:06:36.591Z,6.05
2017-10-28T06:09:04.455Z,4.68
2017-10-28T06:11:30.943Z,4.68
2017-10-28T06:13:57.211Z,5.45
2017-10-28T06:16:23.524Z,5.60
2017-10-28T06:18:50.543Z,5.10
2017-10-28T06:21:18.795Z,5.40
2017-10-28T06:23:45.844Z,4.93
2017-10-28T06:26:12.148Z,5.25
2017-10-28T06:28:38.443Z,5.22
2017-10-28T06:31:04.719Z,4.87
2017-10-28T06:33:31.007Z,4.75
2017-10-28T06:35:57.302Z,5.80
2017-10-28T06:38:23.592Z,5.05
2017-10-28T06:40:50.638Z,4.90
2017-10-28T06:43:20.450Z,5.43
2017-10-28T06:45:46.755Z,5.18
2017-10-28T06:48:13.014Z,5.32
2017-10-28T06:50:40.070Z,6.43
2017-10-28T06:53:06.342Z,5.00
2017-10-28T06:55:32.687Z,5.32
2017-10-28T06:57:59.695Z,4.43
2017-10-28T07:00:26.022Z,4.75
2017-10-28T07:02:52.322Z,4.22
2017-10-28T07:05:18.638Z,4.28
2017-10-28T07:07:45.663Z,5.47
2017-10-28T07:10:11.999Z,4.60
2017-10-28T07:12:38.326Z,4.82
2017-10-28T07:15:05.383Z,4.60
2017-10-28T07:17:31.921Z,4.68
2017-10-28T07:19:58.323Z,5.20
2017-10-28T07:22:24.630Z,4.62
2017-10-28T07:24:51.682Z,3.83
2017-10-28T07:27:17.967Z,3.87
2017-10-28T07:29:45.010Z,4.28
2017-10-28T07:32:11.311Z,3.87
2017-10-28T07:34:37.614Z,3.57
2017-10-28T07:37:03.906Z,3.58
2017-10-28T07:39:30.937Z,3.78
2017-10-28T07:41:57.218Z,3.60
2017-10-28T07:44:24.302Z,3.92
2017-10-28T07:46:50.567Z,4.30
2017-10-28T07:49:16.857Z,3.90
2017-10-28T07:51:43.173Z,3.37
2017-10-28T07:54:09.505Z,3.08
2017-10-28T07:56:35.827Z,3.35
2017-10-28T07:59:02.127Z,3.85
2017-10-28T08:01:28.418Z,3.75
2017-10-28T08:04:00.778Z,3.63
2017-10-28T08:06:27.062Z,3.85
2017-10-28T08:08:58.897Z,3.45
2017-10-28T08:11:26.081Z,4.05
2017-10-28T08:13:52.379Z,3.58
2017-10-28T08:16:18.642Z,3.33
2017-10-28T08:18:44.972Z,3.40
2017-10-28T08:21:11.239Z,3.70
2017-10-28T08:23:37.565Z,4.05
2017-10-28T08:26:04.602Z,4.20
2017-10-28T08:28:30.935Z,3.40
2017-10-28T08:30:57.210Z,3.70
2017-10-28T08:33:23.472Z,3.55
2017-10-28T08:35:50.560Z,3.57
2017-10-28T08:38:16.812Z,3.30
2017-10-28T08:40:43.111Z,3.60
2017-10-28T08:43:09.411Z,3.42
2017-10-28T08:45:36.491Z,3.60
2017-10-28T08:48:02.806Z,3.17
2017-10-28T08:50:29.107Z,3.30
2017-10-28T08:52:55.411Z,3.55
2017-10-28T08:55:21.682Z,4.07
2017-10-28T08:57:47.974Z,3.60
2017-10-28T09:00:15.263Z,3.50
2017-10-28T09:02:42.290Z,4.27
2017-10-28T09:05:08.565Z,3.10
2017-10-28T09:07:35.602Z,3.92
2017-10-28T09:10:01.913Z,3.50
2017-10-28T09:12:28.198Z,3.90
2017-10-28T09:14:54.506Z,4.10
2017-10-28T09:17:20.850Z,3.60
2017-10-28T09:19:47.147Z,3.70
2017-10-28T09:22:13.487Z,4.12
2017-10-28T09:24:40.510Z,3.53
2017-10-28T09:27:06.771Z,3.70
2017-10-28T09:29:33.081Z,4.20
2017-10-28T09:31:59.335Z,3.70
2017-10-28T09:34:25.646Z,4.93
2017-10-28T09:36:51.918Z,3.97
2017-10-28T09:39:18.991Z,4.43
2017-10-28T09:41:45.264Z,3.67
2017-10-28T09:44:11.599Z,4.30
2017-10-28T09:46:37.891Z,4.17
2017-10-28T09:49:04.183Z,4.43
2017-10-28T09:51:30.475Z,3.40
2017-10-28T09:53:56.772Z,4.30
2017-10-28T09:56:23.019Z,3.97
2017-10-28T09:58:49.331Z,4.20
2017-10-28T10:01:16.351Z,4.57
2017-10-28T10:03:42.627Z,4.20
2017-10-28T10:06:08.939Z,4.40
2017-10-28T10:08:35.246Z,4.20
2017-10-28T10:11:01.519Z,4.20
2017-10-28T10:13:28.578Z,5.60
2017-10-28T10:15:55.624Z,5.13
2017-10-28T10:18:21.907Z,5.60
2017-10-28T10:20:48.183Z,6.60
2017-10-28T10:23:14.450Z,4.50
2017-10-28T10:25:40.762Z,5.10
2017-10-28T10:28:07.048Z,5.03
2017-10-28T10:30:33.368Z,4.40
2017-10-28T10:33:00.402Z,4.10
2017-10-28T10:35:26.727Z,5.57
2017-10-28T10:37:52.998Z,4.10
2017-10-28T10:40:19.310Z,5.33
2017-10-28T10:42:45.654Z,5.60
2017-10-28T10:45:11.945Z,5.33
2017-10-28T10:47:38.331Z,5.10
2017-10-28T10:50:04.644Z,6.70
2017-10-28T10:52:30.926Z,5.40
2017-10-28T10:54:57.276Z,5.03
2017-10-28T10:57:23.579Z,4.80
2017-10-28T10:59:50.641Z,6.70
2017-10-28T11:02:16.939Z,5.00
2017-10-28T11:04:45.149Z,5.67
2017-10-28T11:07:11.678Z,6.37
2017-10-28T11:09:38.113Z,5.00
2017-10-28T11:12:05.177Z,5.63
2017-10-28T11:14:31.495Z,4.50
2017-10-28T11:16:57.814Z,5.30
2017-10-28T11:19:24.822Z,5.27
2017-10-28T11:21:51.126Z,4.87
2017-10-28T11:24:18.179Z,4.57
2017-10-28T11:26:44.466Z,5.40
2017-10-28T11:29:10.771Z,5.67
2017-10-28T11:31:37.182Z,5.10
2017-10-28T11:34:03.511Z,5.40
2017-10-28T11:36:29.807Z,5.90
2017-10-28T11:38:56.146Z,5.83
2017-10-28T11:41:22.464Z,4.87
2017-10-28T11:43:49.563Z,5.00
2017-10-28T11:46:15.882Z,5.70
2017-10-28T11:48:42.193Z,5.20
2017-10-28T11:51:08.508Z,6.63
2017-10-28T11:53:35.555Z,4.50
2017-10-28T11:56:01.921Z,4.50
2017-10-28T11:58:28.211Z,6.37
2017-10-28T12:00:54.529Z,5.37
2017-10-28T12:03:20.839Z,5.60
2017-10-28T12:05:47.478Z,4.57
2017-10-28T12:08:13.953Z,6.37
2017-10-28T12:10:40.307Z,6.23
2017-10-28T12:13:06.920Z,4.30
2017-10-28T12:15:33.319Z,4.40
2017-10-28T12:18:00.408Z,4.77
2017-10-28T12:20:26.750Z,5.70
2017-10-28T12:22:53.098Z,4.60
2017-10-28T12:25:20.244Z,4.90
2017-10-28T12:27:47.703Z,4.40
2017-10-28T12:30:14.412Z,5.20
2017-10-28T12:32:42.080Z,4.50
2017-10-28T12:35:08.627Z,4.10
2017-10-28T12:37:35.605Z,4.10
2017-10-28T12:40:02.085Z,4.80
2017-10-28T12:42:28.603Z,4.50
2017-10-28T12:44:55.717Z,4.63
2017-10-28T12:47:22.006Z,4.30
2017-10-28T12:49:48.377Z,4.10
2017-10-28T12:52:14.705Z,4.70
2017-10-28T12:54:41.040Z,3.80
2017-10-28T12:57:07.621Z,4.83
2017-10-28T12:59:33.954Z,4.10
2017-10-28T13:02:01.032Z,4.33
2017-10-28T13:04:27.428Z,4.60
2017-10-28T13:06:54.110Z,4.23
2017-10-28T13:09:21.225Z,3.97
2017-10-28T13:11:47.599Z,3.73
2017-10-28T13:14:13.887Z,4.60
2017-10-28T13:16:40.184Z,4.43
2017-10-28T13:19:06.523Z,3.80
2017-10-28T13:21:33.608Z,3.83
2017-10-28T13:23:59.891Z,4.23
2017-10-28T13:26:26.222Z,3.40
2017-10-28T13:28:52.511Z,3.50
2017-10-28T13:31:19.033Z,3.70
2017-10-28T13:33:45.421Z,3.23
2017-10-28T13:36:11.837Z,3.37
2017-10-28T13:38:39.365Z,3.57
2017-10-28T13:41:06.061Z,3.63
2017-10-28T13:43:33.032Z,3.33
2017-10-28T13:45:59.429Z,3.00
2017-10-28T13:48:25.804Z,3.07
2017-10-28T13:50:52.098Z,2.70
2017-10-28T13:53:18.453Z,3.17
2017-10-28T13:55:44.749Z,3.40
2017-10-28T13:58:11.297Z,2.83
2017-10-28T14:00:37.750Z,2.73
2017-10-28T14:03:04.055Z,2.57
2017-10-28T14:05:30.654Z,2.90
2017-10-28T14:07:57.813Z,2.77
2017-10-28T14:10:24.887Z,3.23
2017-10-28T14:12:52.162Z,3.20
2017-10-28T14:15:19.132Z,2.83
2017-10-28T14:17:46.103Z,2.47
2017-10-28T14:20:13.075Z,2.50
2017-10-28T14:22:39.819Z,2.57
2017-10-28T14:25:07.428Z,2.60
2017-10-28T14:27:33.887Z,3.30
2017-10-28T14:30:00.190Z,2.50
2017-10-28T14:32:26.585Z,2.53
2017-10-28T14:34:53.146Z,2.70
2017-10-28T14:37:20.319Z,3.67
2017-10-28T14:39:46.842Z,2.90
2017-10-28T14:42:13.361Z,2.13
2017-10-28T14:44:39.741Z,2.83
2017-10-28T14:47:06.066Z,2.70
2017-10-28T14:49:32.635Z,2.60
2017-10-28T14:51:59.220Z,3.07
2017-10-28T14:54:27.001Z,2.93
2017-10-28T14:56:54.248Z,2.77
2017-10-28T14:59:20.651Z,2.73
2017-10-28T15:01:47.409Z,2.60
2017-10-28T15:04:14.441Z,3.50
2017-10-28T15:06:42.642Z,2.83
2017-10-28T15:09:09.713Z,3.00
2017-10-28T15:11:36.781Z,2.30
2017-10-28T15:14:03.409Z,2.83
2017-10-28T15:16:31.336Z,2.70
2017-10-28T15:18:59.031Z,2.40
2017-10-28T15:21:26.919Z,2.70
2017-10-28T15:23:54.090Z,2.33
2017-10-28T15:26:20.645Z,2.50
2017-10-28T15:28:47.173Z,2.10
2017-10-28T15:31:13.519Z,2.23
2017-10-28T15:33:39.885Z,2.00
2017-10-28T15:36:06.250Z,2.70
2017-10-28T15:38:32.561Z,2.40
2017-10-28T15:40:59.630Z,2.20
2017-10-28T15:43:26.652Z,2.10
2017-10-28T15:45:52.963Z,2.27
2017-10-28T15:48:19.955Z,2.60
2017-10-28T15:50:46.336Z,2.30
2017-10-28T15:53:12.654Z,2.20
2017-10-28T15:55:40.057Z,2.87
2017-10-28T15:58:06.377Z,2.37
2017-10-28T16:00:32.727Z,1.93
2017-10-28T16:02:59.775Z,2.20
2017-10-28T16:05:26.832Z,1.87
2017-10-28T16:07:53.135Z,2.90
2017-10-28T16:10:19.475Z,2.17
2017-10-28T16:12:45.870Z,2.47
2017-10-28T16:15:12.598Z,2.50
2017-10-28T16:17:39.050Z,2.00
2017-10-28T16:20:05.610Z,3.43
2017-10-28T16:22:32.052Z,2.40
2017-10-28T16:24:59.830Z,2.63
2017-10-28T16:27:26.702Z,2.37
2017-10-28T16:29:53.263Z,3.00
2017-10-28T16:32:19.932Z,2.67
2017-10-28T16:34:46.891Z,2.33
2017-10-28T16:37:14.282Z,2.53
2017-10-28T16:39:41.753Z,2.70
2017-10-28T16:42:09.850Z,2.33
2017-10-28T16:44:38.560Z,2.67
2017-10-28T16:47:05.833Z,2.53
2017-10-28T16:49:32.803Z,3.43
2017-10-28T16:51:59.677Z,2.50
2017-10-28T16:54:27.562Z,2.50
2017-10-28T16:56:54.743Z,2.37
2017-10-28T16:59:25.427Z,2.23
2017-10-28T17:01:53.306Z,2.33
2017-10-28T17:04:21.830Z,3.03
2017-10-28T17:06:52.147Z,3.07
2017-10-28T17:09:20.776Z,2.40
2017-10-28T17:11:49.494Z,2.90
2017-10-28T17:14:19.033Z,2.70
2017-10-28T17:16:47.297Z,2.73
2017-10-28T17:19:15.901Z,2.60
2017-10-28T17:21:44.757Z,2.17
2017-10-28T17:24:13.236Z,2.53
2017-10-28T17:26:41.927Z,2.93
2017-10-28T17:29:11.770Z,2.67
2017-10-28T17:31:40.162Z,2.90
2017-10-28T17:34:09.037Z,2.77
2017-10-28T17:36:37.660Z,3.03
2017-10-28T17:39:06.146Z,3.37
2017-10-28T17:41:35.187Z,3.90
2017-10-28T17:44:04.086Z,3.00
2017-10-28T17:46:33.318Z,2.73
2017-10-28T17:49:02.551Z,2.60
2017-10-28T17:51:31.719Z,3.30
2017-10-28T17:54:00.613Z,2.90
2017-10-28T17:56:29.591Z,3.30
2017-10-28T17:58:59.004Z,2.73
2017-10-28T18:01:27.830Z,3.37
2017-10-28T18:03:57.032Z,3.13
2017-10-28T18:06:25.981Z,3.93
2017-10-28T18:08:55.692Z,3.00
2017-10-28T18:11:24.486Z,2.57
2017-10-28T18:13:55.135Z,2.70
2017-10-28T18:16:23.976Z,4.00
2017-10-28T18:18:53.196Z,3.13
2017-10-28T18:21:22.097Z,2.30
2017-10-28T18:23:52.067Z,2.67
2017-10-28T18:26:21.681Z,2.73
2017-10-28T18:28:50.413Z,2.70
2017-10-28T18:31:20.042Z,2.57
2017-10-28T18:33:49.628Z,3.07
2017-10-28T18:36:18.837Z,2.83
2017-10-28T18:38:47.666Z,3.60
2017-10-28T18:41:17.648Z,2.83
2017-10-28T18:43:47.335Z,3.20
2017-10-28T18:46:16.770Z,3.00
2017-10-28T18:48:47.465Z,3.53
2017-10-28T18:51:16.173Z,4.22
2017-10-28T18:53:45.064Z,4.67
2017-10-28T18:56:13.946Z,4.33
2017-10-28T18:58:43.114Z,4.60
2017-10-28T19:01:12.129Z,4.80
2017-10-28T19:03:41.238Z,4.83
2017-10-28T19:06:09.999Z,4.23
2017-10-28T19:08:39.408Z,5.50
2017-10-28T19:11:08.196Z,4.50
2017-10-28T19:13:38.056Z,3.93
2017-10-28T19:16:08.105Z,4.53
2017-10-28T19:18:36.833Z,4.97
2017-10-28T19:21:05.593Z,3.70
2017-10-28T19:23:34.020Z,4.03
2017-10-28T19:26:03.337Z,3.85
2017-10-28T19:28:31.893Z,2.90
2017-10-28T19:31:01.121Z,4.18
2017-10-28T19:33:30.284Z,3.00
2017-10-28T19:35:58.978Z,3.50
2017-10-28T19:38:27.500Z,4.30
2017-10-28T19:40:56.703Z,4.07
2017-10-28T19:43:25.803Z,3.87
2017-10-28T19:45:54.448Z,3.83
2017-10-28T19:48:23.329Z,3.70
2017-10-28T19:50:51.708Z,5.37
2017-10-28T19:53:20.910Z,4.70
2017-10-28T19:55:50.205Z,4.63
2017-10-28T19:58:18.830Z,4.10
2017-10-28T20:00:48.301Z,3.50
2017-10-28T20:03:17.080Z,4.60
2017-10-28T20:05:45.697Z,4.40
2017-10-28T20:08:14.787Z,4.80
2017-10-28T20:10:43.839Z,5.00
2017-10-28T20:13:14.145Z,4.00
2017-10-28T20:15:43.316Z,4.03
2017-10-28T20:18:12.536Z,4.13
2017-10-28T20:20:42.175Z,4.37
2017-10-28T20:23:10.900Z,4.90
2017-10-28T20:25:39.530Z,3.83
2017-10-28T20:28:08.362Z,4.43
2017-10-28T20:30:37.113Z,4.53
2017-10-28T20:33:05.645Z,4.27
2017-10-28T20:35:35.007Z,4.30
2017-10-28T20:38:03.592Z,4.27
2017-10-28T20:40:32.470Z,3.70
2017-10-28T20:43:01.233Z,4.30
2017-10-28T20:45:30.048Z,3.80
2017-10-28T20:47:58.668Z,3.87
2017-10-28T20:50:27.407Z,3.80
2017-10-28T20:52:56.027Z,3.23
2017-10-28T20:55:27.057Z,4.33
2017-10-28T20:57:56.058Z,3.90
2017-10-28T21:00:25.087Z,3.77
2017-10-28T21:02:53.860Z,3.27
2017-10-28T21:05:22.907Z,3.73
2017-10-28T21:07:52.111Z,2.73
2017-10-28T21:10:21.377Z,3.67
2017-10-28T21:12:50.232Z,2.60
2017-10-28T21:15:19.745Z,2.37
2017-10-28T21:17:48.460Z,2.90
2017-10-28T21:20:17.119Z,3.10
2017-10-28T21:22:46.910Z,2.93
2017-10-28T21:25:15.662Z,3.27
2017-10-28T21:27:44.500Z,3.03
2017-10-28T21:30:13.749Z,2.80
2017-10-28T21:32:42.682Z,2.27
2017-10-28T21:35:11.798Z,2.30
2017-10-28T21:37:40.370Z,2.17
2017-10-28T21:40:10.331Z,2.13
2017-10-28T21:42:39.257Z,2.30
2017-10-28T21:45:08.367Z,2.10
2017-10-28T21:47:37.601Z,2.17
2017-10-28T21:50:06.520Z,2.37
2017-10-28T21:52:35.940Z,2.10
2017-10-28T21:55:04.930Z,2.07
2017-10-28T21:57:33.804Z,2.40
2017-10-28T22:00:02.781Z,1.97
2017-10-28T22:02:31.530Z,1.80
2017-10-28T22:04:58.736Z,2.00
2017-10-28T22:07:25.921Z,1.37
2017-10-28T22:09:52.531Z,1.70
2017-10-28T22:12:19.260Z,1.93
2017-10-28T22:14:46.640Z,2.03
2017-10-28T22:17:13.430Z,2.20
2017-10-28T22:19:39.909Z,2.10
2017-10-28T22:22:06.959Z,2.73
2017-10-28T22:24:34.103Z,2.93
2017-10-28T22:27:01.289Z,2.30
2017-10-28T22:29:27.595Z,3.00
2017-10-28T22:31:53.923Z,2.73
2017-10-28T22:34:20.211Z,2.10
2017-10-28T22:36:46.497Z,2.90
2017-10-28T22:39:12.866Z,3.00
2017-10-28T22:41:39.162Z,2.93
2017-10-28T22:44:06.293Z,2.50
2017-10-28T22:46:32.578Z,2.27
2017-10-28T22:48:58.905Z,1.90
2017-10-28T22:51:25.955Z,1.90
2017-10-28T22:53:52.294Z,2.43
2017-10-28T22:56:18.578Z,2.67
2017-10-28T22:58:44.884Z,2.40
2017-10-28T23:01:11.156Z,3.00
2017-10-28T23:03:37.474Z,2.10
2017-10-28T23:06:03.957Z,1.90
2017-10-28T23:08:30.314Z,2.50
2017-10-28T23:10:57.335Z,1.90
2017-10-28T23:13:23.609Z,1.87
2017-10-28T23:15:49.879Z,2.13
2017-10-28T23:18:16.213Z,2.43
2017-10-28T23:20:42.511Z,2.33
2017-10-28T23:23:09.579Z,1.90
2017-10-28T23:25:35.894Z,2.10
2017-10-28T23:28:03.195Z,1.60
2017-10-28T23:30:30.263Z,1.87
2017-10-28T23:32:56.527Z,1.50
2017-10-28T23:35:22.848Z,1.90
2017-10-28T23:37:49.115Z,2.00
2017-10-28T23:40:15.382Z,1.67
2017-10-28T23:42:42.470Z,1.50
2017-10-28T23:45:09.517Z,1.97
2017-10-28T23:47:35.788Z,1.33
2017-10-28T23:50:02.075Z,1.73
2017-10-28T23:52:28.371Z,1.60
2017-10-28T23:54:55.423Z,1.40
2017-10-28T23:57:21.723Z,1.43
2017-10-28T23:59:48.011Z,1.30
